M I D A S
Marine Information and Data Acquisition System
Tripno 293 of the Zeeleeuw from 2002-07-05 05:22:39 to 2002-07-05 12:30:10
Back to CruiseResearch ActivitiesStationsMapUnderway DataData graphs

EquipmentUnitsComments
TimeDGPSUTC
LatitudeDGPSDM.mWGS84
LongitudeDGPSDM.mWGS84
SpeedMeteo Stationm/sRelative wind speed
DirectionMeteo StationdegRelative wind direction
TemperatureMeteo Stationdeg CelciusAir temperature
PressureMeteo StationPaAtmospheric pressure
HumidityMeteo Station%Relative humidity
Missing or incorrect values are displayed as -999
Metereological data collected by the RV Zeeleeuw from 2002-07-05 05:22:39 to 2002-07-05 12:30:10
                                                                                    Next 1000 lines
Time Latitude Longitude Speed Direction Temperature Pressure Humidity
2002-07-05 05:22:48 51°14.266 2°55.257 3.6 275 13.3 101240 85
2002-07-05 05:22:54 51°14.275 2°55.241 3.5 281 13.3 101240 85
2002-07-05 05:22:58 51°14.282 2°55.229 2.9 266 13.3 101240 85
2002-07-05 05:23:03 51°14.289 2°55.215 3.1 249 13.3 101240 85
2002-07-05 05:23:08 51°14.297 2°55.2 3.4 282 13.3 101240 85
2002-07-05 05:23:13 51°14.304 2°55.184 3.1 260 13.3 101240 85
2002-07-05 05:23:18 51°14.311 2°55.168 3.1 268 13.3 101240 85
2002-07-05 05:23:23 51°14.318 2°55.151 4.1 255 13.3 101240 85
2002-07-05 05:23:28 51°14.326 2°55.135 4 251 13.3 101240 85
2002-07-05 05:23:33 51°14.334 2°55.118 4.5 262 13.3 101240 85
2002-07-05 05:23:40 51°14.346 2°55.094 3.9 253 13.3 101240 85
2002-07-05 05:23:45 51°14.354 2°55.076 4.9 249 13.3 101240 85
2002-07-05 05:23:49 51°14.361 2°55.062 4.7 266 13.3 101240 85
2002-07-05 05:23:54 51°14.371 2°55.043 5.6 262 13.3 101240 85
2002-07-05 05:23:58 51°14.379 2°55.028 5.7 267 13.3 101240 85
2002-07-05 05:24:03 51°14.389 2°55.01 4.4 265 13.3 101240 85
2002-07-05 05:24:08 51°14.399 2°54.991 5.2 266 13.3 101230 85
2002-07-05 05:24:15 51°14.414 2°54.964 5.5 262 13.3 101230 85
2002-07-05 05:24:19 51°14.423 2°54.948 6.2 274 13.3 101230 85
2002-07-05 05:24:24 51°14.432 2°54.927 7.4 272 13.3 101230 85
2002-07-05 05:24:28 51°14.439 2°54.909 6.8 278 13.3 101230 85
2002-07-05 05:24:33 51°14.445 2°54.885 7 266 13.3 101230 85
2002-07-05 05:24:38 51°14.451 2°54.861 7.9 271 13.3 101230 85
2002-07-05 05:24:44 51°14.455 2°54.831 7.6 268 13.3 101230 85
2002-07-05 05:24:49 51°14.458 2°54.805 7.5 270 13.3 101230 85
2002-07-05 05:24:54 51°14.46 2°54.78 8.3 264 13.3 101230 85
2002-07-05 05:24:59 51°14.461 2°54.754 8.7 275 13.3 101230 85
2002-07-05 05:25:03 51°14.461 2°54.733 8.2 270 13.3 101230 85
2002-07-05 05:25:08 51°14.46 2°54.707 8.8 264 13.3 101220 85
2002-07-05 05:25:13 51°14.458 2°54.681 8.9 258 13.3 101220 85
2002-07-05 05:25:19 51°14.455 2°54.65 9.2 258 13.3 101220 85
2002-07-05 05:25:23 51°14.451 2°54.63 9.1 259 13.3 101220 85
2002-07-05 05:25:29 51°14.446 2°54.6 8.8 263 13.3 101210 85
2002-07-05 05:25:33 51°14.442 2°54.579 10.7 269 13.3 101210 85
2002-07-05 05:25:38 51°14.438 2°54.554 10.1 269 13.3 101210 85
2002-07-05 05:25:43 51°14.434 2°54.528 9.9 261 13.3 101210 85
2002-07-05 05:25:48 51°14.43 2°54.503 9 262 13.4 101210 85
2002-07-05 05:25:53 51°14.426 2°54.478 10.5 263 13.4 101210 85
2002-07-05 05:25:59 51°14.42 2°54.447 10.6 263 13.4 101210 85
2002-07-05 05:26:04 51°14.415 2°54.423 10 258 13.4 101210 85
2002-07-05 05:26:09 51°14.409 2°54.398 9.6 260 13.4 101210 85
2002-07-05 05:26:13 51°14.405 2°54.378 10.4 262 13.4 101210 85
2002-07-05 05:26:18 51°14.4 2°54.353 10.7 266 13.4 101200 85
2002-07-05 05:26:23 51°14.395 2°54.328 10.6 264 13.4 101200 85
2002-07-05 05:26:29 51°14.389 2°54.297 10.5 268 13.4 101210 85
2002-07-05 05:26:33 51°14.386 2°54.277 10.4 264 13.4 101210 85
2002-07-05 05:26:39 51°14.379 2°54.248 10.1 257 13.3 101200 85
2002-07-05 05:26:43 51°14.373 2°54.229 11.2 250 13.3 101200 85
2002-07-05 05:26:48 51°14.365 2°54.206 10.7 254 13.4 101220 85
2002-07-05 05:26:53 51°14.356 2°54.184 12.1 254 13.4 101220 85
2002-07-05 05:26:59 51°14.346 2°54.157 11.2 258 13.4 101190 85
2002-07-05 05:27:03 51°14.34 2°54.139 10.7 267 13.4 101190 85
2002-07-05 05:27:08 51°14.333 2°54.116 9.9 260 13.4 101210 85
2002-07-05 05:27:13 51°14.326 2°54.093 10.3 257 13.4 101210 85
2002-07-05 05:27:19 51°14.317 2°54.064 11.7 261 13.3 101200 85
2002-07-05 05:27:23 51°14.311 2°54.046 11.3 261 13.3 101200 85
2002-07-05 05:27:28 51°14.304 2°54.023 9.9 256 13.3 101210 85
2002-07-05 05:27:33 51°14.296 2°53.999 10.7 257 13.3 101210 85
2002-07-05 05:27:38 51°14.288 2°53.976 9.4 251 13.3 101200 85
2002-07-05 05:27:43 51°14.28 2°53.953 9.9 257 13.3 101200 85
2002-07-05 05:27:48 51°14.272 2°53.93 10.4 258 13.4 101200 85
2002-07-05 05:27:53 51°14.264 2°53.907 9.5 258 13.4 101200 85
2002-07-05 05:27:58 51°14.256 2°53.884 11.8 256 13.4 101220 85
2002-07-05 05:28:03 51°14.248 2°53.861 11.9 259 13.4 101220 85
2002-07-05 05:28:08 51°14.241 2°53.838 11.9 263 13.4 101210 85
2002-07-05 05:28:14 51°14.231 2°53.81 11.1 262 13.4 101210 85
2002-07-05 05:28:18 51°14.225 2°53.792 10.4 261 13.4 101200 85
2002-07-05 05:28:23 51°14.217 2°53.768 10.9 262 13.4 101200 85
2002-07-05 05:28:28 51°14.209 2°53.745 12.2 269 13.3 101200 85
2002-07-05 05:28:33 51°14.201 2°53.722 12.6 268 13.3 101200 85
2002-07-05 05:28:38 51°14.194 2°53.698 10.8 266 13.3 101190 85
2002-07-05 05:28:43 51°14.187 2°53.675 11 261 13.3 101190 85
2002-07-05 05:28:48 51°14.179 2°53.652 11.8 258 13.4 101200 85
2002-07-05 05:28:54 51°14.17 2°53.624 12.8 257 13.4 101200 85
2002-07-05 05:28:58 51°14.164 2°53.605 10.6 254 13.3 101200 85
2002-07-05 05:29:03 51°14.157 2°53.582 10.7 257 13.3 101200 85
2002-07-05 05:29:08 51°14.149 2°53.558 10.9 258 13.4 101200 85
2002-07-05 05:29:13 51°14.142 2°53.534 11.1 259 13.4 101200 85
2002-07-05 05:29:18 51°14.134 2°53.511 10.7 253 13.3 101200 85
2002-07-05 05:29:24 51°14.125 2°53.482 11 258 13.3 101200 85
2002-07-05 05:29:29 51°14.118 2°53.458 11.3 264 13.3 101200 85
2002-07-05 05:29:34 51°14.11 2°53.435 10.5 261 13.3 101200 85
2002-07-05 05:29:38 51°14.105 2°53.416 11.1 262 13.3 101200 85
2002-07-05 05:29:43 51°14.097 2°53.393 9.9 260 13.3 101200 85
2002-07-05 05:29:48 51°14.09 2°53.369 9.2 265 13.4 101200 85
2002-07-05 05:29:53 51°14.082 2°53.345 11.3 252 13.4 101200 85
2002-07-05 05:29:59 51°14.073 2°53.317 11.1 255 13.3 101200 85
2002-07-05 05:30:03 51°14.068 2°53.298 9.7 260 13.3 101200 85
2002-07-05 05:30:08 51°14.06 2°53.274 9.7 260 13.3 101210 86
2002-07-05 05:30:13 51°14.053 2°53.251 10.1 261 13.3 101210 86
2002-07-05 05:30:18 51°14.046 2°53.227 9.6 256 13.4 101210 86
2002-07-05 05:30:23 51°14.038 2°53.204 10.4 255 13.4 101210 86
2002-07-05 05:30:28 51°14.03 2°53.18 10.8 258 13.4 101200 86
2002-07-05 05:30:33 51°14.022 2°53.156 11.4 260 13.4 101200 86
2002-07-05 05:30:39 51°14.013 2°53.126 10.7 259 13.4 101200 86
2002-07-05 05:30:43 51°14.007 2°53.106 10.3 252 13.4 101200 86
2002-07-05 05:30:49 51°13.997 2°53.076 10.6 252 13.4 101210 86
2002-07-05 05:30:53 51°13.991 2°53.055 11.1 252 13.4 101210 86
2002-07-05 05:30:58 51°13.983 2°53.029 12 260 13.3 101200 85
2002-07-05 05:31:03 51°13.976 2°53.003 11.4 260 13.3 101200 85
2002-07-05 05:31:08 51°13.968 2°52.976 12.4 256 13.3 101200 86
2002-07-05 05:31:14 51°13.958 2°52.944 10.9 254 13.3 101200 86
2002-07-05 05:31:18 51°13.952 2°52.923 11 254 13.4 101190 86
2002-07-05 05:31:23 51°13.943 2°52.896 10.6 253 13.4 101190 86
2002-07-05 05:31:28 51°13.935 2°52.869 11.4 256 13.4 101210 86
2002-07-05 05:31:33 51°13.926 2°52.843 13 256 13.4 101210 86
2002-07-05 05:31:38 51°13.917 2°52.817 12.8 254 13.4 101200 86
2002-07-05 05:31:44 51°13.907 2°52.785 12.5 257 13.4 101200 86
2002-07-05 05:31:48 51°13.899 2°52.764 11.3 254 13.4 101200 86
2002-07-05 05:31:53 51°13.891 2°52.737 9.7 251 13.4 101200 86
2002-07-05 05:31:59 51°13.88 2°52.706 10.7 258 13.4 101200 86
2002-07-05 05:32:03 51°13.873 2°52.685 11.4 259 13.4 101200 86
2002-07-05 05:32:08 51°13.864 2°52.659 10.6 253 13.4 101190 86
2002-07-05 05:32:13 51°13.855 2°52.632 12.4 250 13.4 101190 86
2002-07-05 05:32:18 51°13.846 2°52.605 11.8 250 13.4 101200 86
2002-07-05 05:32:23 51°13.838 2°52.579 11.5 251 13.4 101200 86
2002-07-05 05:32:28 51°13.829 2°52.553 11 254 13.4 101190 86
2002-07-05 05:32:33 51°13.82 2°52.526 12 257 13.4 101190 86
2002-07-05 05:32:38 51°13.812 2°52.499 11.1 253 13.4 101190 86
2002-07-05 05:32:43 51°13.803 2°52.473 11.6 256 13.4 101190 86
2002-07-05 05:32:48 51°13.794 2°52.446 11.3 256 13.4 101190 86
2002-07-05 05:32:53 51°13.785 2°52.419 13.2 254 13.4 101190 86
2002-07-05 05:32:59 51°13.775 2°52.387 12.5 255 13.4 101190 86
2002-07-05 05:33:03 51°13.767 2°52.366 12 254 13.4 101190 86
2002-07-05 05:33:08 51°13.759 2°52.339 12.9 260 13.4 101200 86
2002-07-05 05:33:13 51°13.75 2°52.313 11.9 257 13.4 101200 86
2002-07-05 05:33:18 51°13.741 2°52.287 11.5 258 13.4 101200 86
2002-07-05 05:33:23 51°13.732 2°52.26 11 254 13.4 101200 86
2002-07-05 05:33:28 51°13.723 2°52.234 11.2 253 13.4 101170 86
2002-07-05 05:33:33 51°13.714 2°52.207 11.1 252 13.4 101170 86
2002-07-05 05:33:39 51°13.704 2°52.175 11.2 254 13.4 101190 86
2002-07-05 05:33:43 51°13.696 2°52.155 12 255 13.4 101190 86
2002-07-05 05:33:48 51°13.688 2°52.128 11.8 257 13.4 101190 86
2002-07-05 05:33:54 51°13.677 2°52.096 12.1 254 13.4 101190 86
2002-07-05 05:33:58 51°13.67 2°52.075 12.6 257 13.4 101190 86
2002-07-05 05:34:03 51°13.661 2°52.049 11.2 253 13.4 101190 86
2002-07-05 05:34:08 51°13.652 2°52.022 11 255 13.4 101180 86
2002-07-05 05:34:14 51°13.642 2°51.99 11.1 259 13.4 101180 86
2002-07-05 05:34:18 51°13.635 2°51.969 11.2 255 13.4 101190 86
2002-07-05 05:34:23 51°13.626 2°51.943 11.2 254 13.4 101190 86
2002-07-05 05:34:28 51°13.617 2°51.916 11.6 258 13.4 101190 86
2002-07-05 05:34:33 51°13.608 2°51.89 10.8 259 13.4 101190 86
2002-07-05 05:34:39 51°13.597 2°51.858 9.9 253 13.4 101180 86
2002-07-05 05:34:43 51°13.59 2°51.837 11.5 256 13.4 101180 86
2002-07-05 05:34:49 51°13.579 2°51.806 12.1 256 13.4 101180 86
2002-07-05 05:34:53 51°13.571 2°51.785 10.9 252 13.4 101180 86
2002-07-05 05:34:59 51°13.56 2°51.753 11.9 255 13.4 101190 86
2002-07-05 05:35:03 51°13.553 2°51.732 10.9 254 13.4 101190 86
2002-07-05 05:35:09 51°13.542 2°51.701 10.7 253 13.4 101190 86
2002-07-05 05:35:13 51°13.535 2°51.68 11 252 13.4 101190 86
2002-07-05 05:35:18 51°13.525 2°51.654 10.6 253 13.4 101190 86
2002-07-05 05:35:23 51°13.516 2°51.627 12 252 13.4 101190 86
2002-07-05 05:35:28 51°13.507 2°51.601 12 256 13.4 101190 86
2002-07-05 05:35:33 51°13.498 2°51.574 11.2 255 13.4 101190 86
2002-07-05 05:35:38 51°13.489 2°51.548 11.1 249 13.5 101190 86
2002-07-05 05:35:43 51°13.48 2°51.522 11.2 254 13.5 101190 86
2002-07-05 05:35:48 51°13.471 2°51.495 11.6 254 13.4 101190 86
2002-07-05 05:35:54 51°13.46 2°51.464 11 257 13.4 101190 86
2002-07-05 05:35:59 51°13.451 2°51.437 12.2 253 13.4 101190 86
2002-07-05 05:36:03 51°13.443 2°51.416 11.6 254 13.4 101190 86
2002-07-05 05:36:08 51°13.434 2°51.39 12.5 257 13.4 101180 86
2002-07-05 05:36:13 51°13.425 2°51.363 11.5 259 13.4 101180 86
2002-07-05 05:36:18 51°13.416 2°51.337 10.5 255 13.4 101190 86
2002-07-05 05:36:24 51°13.405 2°51.306 10.6 256 13.4 101190 86
2002-07-05 05:36:28 51°13.398 2°51.285 11.2 255 13.4 101180 86
2002-07-05 05:36:33 51°13.389 2°51.259 10.6 254 13.4 101180 86
2002-07-05 05:36:38 51°13.381 2°51.232 11.2 260 13.4 101190 86
2002-07-05 05:36:43 51°13.37 2°51.206 10.6 254 13.4 101190 86
2002-07-05 05:36:48 51°13.361 2°51.179 11.5 256 13.4 101170 86
2002-07-05 05:36:53 51°13.352 2°51.153 11 254 13.4 101170 86
2002-07-05 05:36:59 51°13.341 2°51.122 10.7 256 13.4 101190 86
2002-07-05 05:37:03 51°13.334 2°51.1 10.9 259 13.4 101190 86
2002-07-05 05:37:08 51°13.325 2°51.074 10.6 258 13.4 101190 86
2002-07-05 05:37:13 51°13.316 2°51.047 11.9 257 13.4 101190 86
2002-07-05 05:37:18 51°13.307 2°51.021 12.7 255 13.4 101180 86
2002-07-05 05:37:24 51°13.296 2°50.989 11.6 256 13.4 101180 86
2002-07-05 05:37:28 51°13.289 2°50.968 12.3 255 13.4 101180 86
2002-07-05 05:37:34 51°13.279 2°50.937 11.4 255 13.4 101180 86
2002-07-05 05:37:38 51°13.272 2°50.915 11.7 259 13.4 101180 86
2002-07-05 05:37:44 51°13.261 2°50.884 11.5 256 13.4 101180 86
2002-07-05 05:37:48 51°13.254 2°50.862 11.9 257 13.4 101170 86
2002-07-05 05:37:53 51°13.244 2°50.836 10.9 253 13.4 101170 86
2002-07-05 05:37:58 51°13.236 2°50.81 11.2 254 13.4 101170 86
2002-07-05 05:38:03 51°13.226 2°50.784 11.2 259 13.4 101170 86
2002-07-05 05:38:08 51°13.217 2°50.757 11.6 258 13.4 101180 86
2002-07-05 05:38:14 51°13.206 2°50.726 11.5 257 13.4 101180 86
2002-07-05 05:38:18 51°13.199 2°50.705 11.4 258 13.4 101180 87
2002-07-05 05:38:23 51°13.191 2°50.679 11.9 257 13.4 101180 87
2002-07-05 05:38:28 51°13.181 2°50.653 11.3 255 13.4 101170 87
2002-07-05 05:38:33 51°13.172 2°50.626 10.8 257 13.4 101170 87
2002-07-05 05:38:39 51°13.162 2°50.595 11.9 259 13.4 101180 87
2002-07-05 05:38:44 51°13.152 2°50.569 12.3 257 13.4 101180 87
2002-07-05 05:38:49 51°13.143 2°50.543 11.2 260 13.4 101180 87
2002-07-05 05:38:53 51°13.136 2°50.522 12.2 257 13.4 101180 87
2002-07-05 05:38:59 51°13.126 2°50.49 11.7 256 13.4 101180 87
2002-07-05 05:39:03 51°13.118 2°50.469 11.9 256 13.4 101180 87
2002-07-05 05:39:08 51°13.109 2°50.443 11.8 258 13.4 101160 87
2002-07-05 05:39:13 51°13.1 2°50.417 11 257 13.4 101160 87
2002-07-05 05:39:18 51°13.091 2°50.391 10.6 252 13.4 101170 87
2002-07-05 05:39:23 51°13.082 2°50.365 11.8 259 13.4 101170 87
2002-07-05 05:39:28 51°13.073 2°50.339 11.3 257 13.4 101180 87
2002-07-05 05:39:33 51°13.064 2°50.313 11.2 255 13.4 101180 87
2002-07-05 05:39:38 51°13.055 2°50.287 11 253 13.4 101190 87
2002-07-05 05:39:43 51°13.046 2°50.261 11.4 258 13.4 101190 87
2002-07-05 05:39:48 51°13.037 2°50.235 11.8 256 13.4 101170 87
2002-07-05 05:39:54 51°13.026 2°50.204 11.7 255 13.4 101170 87
2002-07-05 05:39:59 51°13.018 2°50.178 11 259 13.4 101170 87
2002-07-05 05:40:04 51°13.009 2°50.152 13.1 257 13.4 101170 87
2002-07-05 05:40:08 51°13.002 2°50.131 11.5 259 13.4 101180 87
2002-07-05 05:40:13 51°12.993 2°50.105 12 258 13.4 101180 87
2002-07-05 05:40:18 51°12.984 2°50.079 10.6 254 13.4 101170 87
2002-07-05 05:40:24 51°12.974 2°50.047 11 256 13.4 101170 87
2002-07-05 05:40:29 51°12.965 2°50.021 11.2 253 13.4 101170 87
2002-07-05 05:40:34 51°12.956 2°49.995 11.4 257 13.4 101170 87
2002-07-05 05:40:39 51°12.948 2°49.968 11.1 257 13.4 101180 87
2002-07-05 05:40:43 51°12.94 2°49.948 11.4 254 13.4 101180 87
2002-07-05 05:40:48 51°12.932 2°49.922 11.8 255 13.4 101170 87
2002-07-05 05:40:53 51°12.923 2°49.896 11.8 260 13.4 101170 87
2002-07-05 05:40:59 51°12.912 2°49.865 12.1 258 13.4 101170 87
2002-07-05 05:41:03 51°12.905 2°49.844 11.6 259 13.4 101170 87
2002-07-05 05:41:09 51°12.894 2°49.813 11.3 260 13.4 101180 87
2002-07-05 05:41:13 51°12.887 2°49.792 11.6 256 13.4 101180 87
2002-07-05 05:41:18 51°12.877 2°49.766 11.2 258 13.4 101170 87
2002-07-05 05:41:23 51°12.868 2°49.74 11.3 259 13.4 101170 87
2002-07-05 05:41:28 51°12.86 2°49.714 11.7 260 13.4 101180 87
2002-07-05 05:41:33 51°12.85 2°49.688 11.7 254 13.4 101180 87
2002-07-05 05:41:39 51°12.84 2°49.657 11.9 262 13.4 101160 87
2002-07-05 05:41:44 51°12.83 2°49.631 10.6 258 13.4 101160 87
2002-07-05 05:41:49 51°12.821 2°49.605 11 257 13.4 101170 87
2002-07-05 05:41:54 51°12.812 2°49.579 12.1 257 13.4 101170 87
2002-07-05 05:41:58 51°12.804 2°49.558 9.9 256 13.4 101170 87
2002-07-05 05:42:03 51°12.796 2°49.532 11.3 258 13.4 101170 87
2002-07-05 05:42:08 51°12.787 2°49.506 12.9 255 13.4 101170 87
2002-07-05 05:42:13 51°12.779 2°49.48 11.7 260 13.4 101170 87
2002-07-05 05:42:19 51°12.768 2°49.448 11.5 260 13.4 101160 87
2002-07-05 05:42:24 51°12.759 2°49.422 11.3 259 13.4 101160 87
2002-07-05 05:42:28 51°12.752 2°49.401 11.6 256 13.4 101160 87
2002-07-05 05:42:33 51°12.742 2°49.376 11.9 257 13.4 101160 87
2002-07-05 05:42:39 51°12.732 2°49.345 13 259 13.4 101160 87
2002-07-05 05:42:44 51°12.722 2°49.319 11.8 257 13.4 101160 87
2002-07-05 05:42:49 51°12.714 2°49.293 12.5 257 13.4 101170 87
2002-07-05 05:42:54 51°12.704 2°49.267 11.1 253 13.4 101170 87
2002-07-05 05:42:59 51°12.696 2°49.241 11.9 257 13.4 101170 87
2002-07-05 05:43:03 51°12.688 2°49.22 12.5 260 13.4 101170 87
2002-07-05 05:43:08 51°12.68 2°49.194 13.1 263 13.4 101160 87
2002-07-05 05:43:13 51°12.67 2°49.168 10.6 256 13.4 101160 87
2002-07-05 05:43:19 51°12.66 2°49.136 11 259 13.5 101170 87
2002-07-05 05:43:24 51°12.651 2°49.11 11 258 13.5 101170 87
2002-07-05 05:43:28 51°12.644 2°49.089 12.6 255 13.4 101150 87
2002-07-05 05:43:33 51°12.636 2°49.063 11.6 264 13.4 101150 87
2002-07-05 05:43:38 51°12.627 2°49.037 12 259 13.4 101160 87
2002-07-05 05:43:44 51°12.616 2°49.006 11.8 261 13.4 101160 87
2002-07-05 05:43:48 51°12.609 2°48.986 13.9 259 13.4 101160 87
2002-07-05 05:43:54 51°12.598 2°48.954 12.3 260 13.4 101160 87
2002-07-05 05:43:59 51°12.589 2°48.928 11.9 257 13.4 101170 87
2002-07-05 05:44:03 51°12.582 2°48.908 11.5 260 13.4 101170 87
2002-07-05 05:44:08 51°12.573 2°48.881 11.9 258 13.4 101160 86
2002-07-05 05:44:13 51°12.565 2°48.855 11.2 258 13.4 101160 86
2002-07-05 05:44:19 51°12.554 2°48.823 11.9 257 13.4 101160 86
2002-07-05 05:44:23 51°12.547 2°48.802 12.7 259 13.4 101160 86
2002-07-05 05:44:28 51°12.539 2°48.776 12.4 260 13.4 101160 86
2002-07-05 05:44:33 51°12.53 2°48.75 11 257 13.4 101160 86
2002-07-05 05:44:39 51°12.519 2°48.719 11.8 256 13.4 101170 87
2002-07-05 05:44:44 51°12.509 2°48.693 11.6 257 13.4 101170 87
2002-07-05 05:44:48 51°12.502 2°48.673 11.7 255 13.4 101160 86
2002-07-05 05:44:53 51°12.492 2°48.647 11.7 252 13.4 101160 86
2002-07-05 05:44:58 51°12.483 2°48.621 12.1 259 13.4 101160 87
2002-07-05 05:45:03 51°12.474 2°48.596 11.1 260 13.4 101160 87
2002-07-05 05:45:09 51°12.463 2°48.565 12.2 258 13.4 101170 87
2002-07-05 05:45:14 51°12.454 2°48.539 12.8 257 13.4 101170 87
2002-07-05 05:45:18 51°12.447 2°48.518 11.1 258 13.4 101170 87
2002-07-05 05:45:24 51°12.437 2°48.486 11.5 258 13.4 101170 87
2002-07-05 05:45:28 51°12.43 2°48.465 11.7 257 13.4 101160 87
2002-07-05 05:45:34 51°12.419 2°48.435 11.4 254 13.4 101160 87
2002-07-05 05:45:39 51°12.41 2°48.408 11.3 259 13.4 101160 87
2002-07-05 05:45:43 51°12.403 2°48.388 12.1 257 13.4 101160 87
2002-07-05 05:45:49 51°12.393 2°48.357 11.7 257 13.5 101160 87
2002-07-05 05:45:54 51°12.385 2°48.33 11.6 255 13.5 101160 87
2002-07-05 05:45:58 51°12.378 2°48.309 11 254 13.4 101170 87
2002-07-05 05:46:03 51°12.369 2°48.283 12 255 13.4 101170 87
2002-07-05 05:46:08 51°12.36 2°48.257 11.3 253 13.4 101170 87
2002-07-05 05:46:13 51°12.351 2°48.231 11.2 257 13.4 101170 87
2002-07-05 05:46:19 51°12.341 2°48.2 11.4 257 13.5 101170 87
2002-07-05 05:46:24 51°12.332 2°48.174 11.4 258 13.5 101170 87
2002-07-05 05:46:29 51°12.323 2°48.148 11.6 258 13.5 101160 87
2002-07-05 05:46:33 51°12.316 2°48.128 11.1 257 13.5 101160 87
2002-07-05 05:46:38 51°12.307 2°48.102 11.2 262 13.5 101160 87
2002-07-05 05:46:43 51°12.298 2°48.076 10.9 259 13.5 101160 87
2002-07-05 05:46:49 51°12.288 2°48.045 11.4 258 13.5 101170 86
2002-07-05 05:46:54 51°12.278 2°48.02 11.4 256 13.5 101170 86
2002-07-05 05:46:59 51°12.269 2°47.994 11.8 260 13.5 101170 86
2002-07-05 05:47:04 51°12.26 2°47.968 10.7 259 13.5 101170 86
2002-07-05 05:47:08 51°12.253 2°47.947 11.7 257 13.5 101160 87
2002-07-05 05:47:13 51°12.244 2°47.921 11.4 258 13.5 101160 87
2002-07-05 05:47:18 51°12.235 2°47.896 11.3 255 13.5 101170 86
2002-07-05 05:47:24 51°12.225 2°47.864 11.3 255 13.5 101170 86
2002-07-05 05:47:29 51°12.216 2°47.838 10.8 257 13.5 101170 87
2002-07-05 05:47:34 51°12.207 2°47.813 11.2 259 13.5 101170 87
2002-07-05 05:47:38 51°12.2 2°47.792 10.2 257 13.5 101170 86
2002-07-05 05:47:43 51°12.191 2°47.766 11.7 261 13.5 101170 86
2002-07-05 05:47:48 51°12.182 2°47.741 10.7 254 13.5 101160 86
2002-07-05 05:47:53 51°12.173 2°47.714 11.6 255 13.5 101160 86
2002-07-05 05:47:58 51°12.164 2°47.689 12.5 260 13.5 101170 86
2002-07-05 05:48:04 51°12.154 2°47.658 12.1 255 13.5 101170 86
2002-07-05 05:48:08 51°12.146 2°47.638 11.8 260 13.5 101160 86
2002-07-05 05:48:14 51°12.136 2°47.607 11.3 250 13.5 101160 86
2002-07-05 05:48:18 51°12.128 2°47.587 11.1 258 13.5 101170 86
2002-07-05 05:48:23 51°12.119 2°47.561 11.5 255 13.5 101170 86
2002-07-05 05:48:29 51°12.108 2°47.531 11.6 256 13.5 101160 87
2002-07-05 05:48:34 51°12.099 2°47.505 10.9 250 13.5 101160 87
2002-07-05 05:48:39 51°12.089 2°47.48 11 255 13.5 101150 87
2002-07-05 05:48:44 51°12.08 2°47.454 11.6 256 13.5 101150 87
2002-07-05 05:48:49 51°12.071 2°47.429 11 258 13.5 101160 87
2002-07-05 05:48:53 51°12.063 2°47.408 12.5 259 13.5 101160 87
2002-07-05 05:48:59 51°12.053 2°47.377 11.1 261 13.5 101170 86
2002-07-05 05:49:03 51°12.046 2°47.356 10.7 253 13.5 101170 86
2002-07-05 05:49:08 51°12.037 2°47.33 10.8 257 13.5 101160 86
2002-07-05 05:49:13 51°12.028 2°47.304 10.5 258 13.5 101160 86
2002-07-05 05:49:19 51°12.018 2°47.273 10.6 260 13.5 101160 86
2002-07-05 05:49:24 51°12.009 2°47.247 10.2 252 13.5 101160 86
2002-07-05 05:49:28 51°12.002 2°47.226 11.5 259 13.5 101160 86
2002-07-05 05:49:33 51°11.994 2°47.2 11.6 255 13.5 101160 86
2002-07-05 05:49:39 51°11.984 2°47.168 11.5 255 13.5 101170 87
2002-07-05 05:49:43 51°11.977 2°47.147 11.8 259 13.5 101170 87
2002-07-05 05:49:48 51°11.969 2°47.121 11.2 259 13.6 101160 86
2002-07-05 05:49:54 51°11.958 2°47.09 10.7 254 13.6 101160 86
2002-07-05 05:49:58 51°11.952 2°47.069 10.5 254 13.5 101160 87
2002-07-05 05:50:03 51°11.943 2°47.043 10.8 258 13.5 101160 87
2002-07-05 05:50:08 51°11.934 2°47.017 10.8 254 13.5 101150 86
2002-07-05 05:50:14 51°11.924 2°46.985 10.3 261 13.5 101150 86
2002-07-05 05:50:18 51°11.918 2°46.964 10.4 260 13.5 101160 86
2002-07-05 05:50:24 51°11.908 2°46.933 10.3 259 13.5 101160 86
2002-07-05 05:50:28 51°11.901 2°46.912 10 259 13.5 101170 86
2002-07-05 05:50:33 51°11.893 2°46.886 10.5 258 13.5 101170 86
2002-07-05 05:50:38 51°11.884 2°46.859 11.2 260 13.5 101160 86
2002-07-05 05:50:43 51°11.876 2°46.833 11 259 13.5 101160 86
2002-07-05 05:50:48 51°11.868 2°46.806 11.1 264 13.6 101160 86
2002-07-05 05:50:53 51°11.861 2°46.78 11.1 256 13.6 101160 86
2002-07-05 05:50:59 51°11.851 2°46.748 10.6 260 13.5 101160 86
2002-07-05 05:51:04 51°11.843 2°46.721 11.9 261 13.5 101160 86
2002-07-05 05:51:08 51°11.836 2°46.7 11.3 261 13.6 101160 86
2002-07-05 05:51:13 51°11.828 2°46.673 11.2 259 13.6 101160 86
2002-07-05 05:51:18 51°11.82 2°46.647 10.7 255 13.6 101160 86
2002-07-05 05:51:24 51°11.811 2°46.615 10.6 259 13.6 101160 86
2002-07-05 05:51:28 51°11.804 2°46.594 10.4 258 13.5 101170 86
2002-07-05 05:51:33 51°11.796 2°46.568 9.8 255 13.5 101170 86
2002-07-05 05:51:39 51°11.786 2°46.536 10.9 258 13.5 101160 86
2002-07-05 05:51:44 51°11.778 2°46.51 10.6 256 13.5 101160 86
2002-07-05 05:51:48 51°11.772 2°46.488 10.6 254 13.5 101170 86
2002-07-05 05:51:53 51°11.765 2°46.462 11 259 13.5 101170 86
2002-07-05 05:51:58 51°11.757 2°46.435 10.9 260 13.6 101160 87
2002-07-05 05:52:03 51°11.75 2°46.407 11.1 265 13.6 101160 87
2002-07-05 05:52:09 51°11.741 2°46.375 10.7 259 13.6 101160 86
2002-07-05 05:52:14 51°11.733 2°46.348 11.3 259 13.6 101160 86
2002-07-05 05:52:19 51°11.726 2°46.321 11 260 13.6 101160 86
2002-07-05 05:52:23 51°11.72 2°46.3 10.7 261 13.6 101160 86
2002-07-05 05:52:28 51°11.713 2°46.273 10.9 258 13.6 101160 86
2002-07-05 05:52:33 51°11.705 2°46.246 10.7 260 13.6 101160 86
2002-07-05 05:52:39 51°11.697 2°46.214 10.9 259 13.6 101170 86
2002-07-05 05:52:44 51°11.689 2°46.187 10.5 261 13.6 101170 86
2002-07-05 05:52:49 51°11.682 2°46.16 10 257 13.6 101160 86
2002-07-05 05:52:54 51°11.675 2°46.133 10.5 258 13.6 101160 86
2002-07-05 05:52:59 51°11.667 2°46.106 10.9 256 13.6 101160 86
2002-07-05 05:53:04 51°11.661 2°46.079 11.1 260 13.6 101160 86
2002-07-05 05:53:09 51°11.653 2°46.052 11.1 258 13.6 101160 86
2002-07-05 05:53:14 51°11.646 2°46.025 11.9 261 13.6 101160 86
2002-07-05 05:53:18 51°11.64 2°46.004 11.7 263 13.6 101170 86
2002-07-05 05:53:23 51°11.633 2°45.977 11.2 262 13.6 101170 86
2002-07-05 05:53:28 51°11.625 2°45.95 10.3 258 13.6 101160 86
2002-07-05 05:53:34 51°11.616 2°45.918 10.7 260 13.6 101160 86
2002-07-05 05:53:39 51°11.609 2°45.89 9.9 265 13.6 101150 86
2002-07-05 05:53:43 51°11.603 2°45.869 9.9 261 13.6 101150 86
2002-07-05 05:53:49 51°11.594 2°45.836 10.2 257 13.6 101160 86
2002-07-05 05:53:53 51°11.588 2°45.815 10.8 258 13.6 101160 86
2002-07-05 05:53:58 51°11.581 2°45.788 10.2 260 13.6 101160 86
2002-07-05 05:54:03 51°11.574 2°45.761 11 262 13.6 101160 86
2002-07-05 05:54:08 51°11.566 2°45.734 10.5 258 13.7 101160 86
2002-07-05 05:54:14 51°11.558 2°45.701 9.8 257 13.7 101160 86
2002-07-05 05:54:18 51°11.553 2°45.679 10.6 263 13.6 101160 86
2002-07-05 05:54:23 51°11.545 2°45.653 10.6 260 13.6 101160 86
2002-07-05 05:54:28 51°11.538 2°45.626 10 260 13.6 101170 86
2002-07-05 05:54:34 51°11.529 2°45.593 10.5 258 13.6 101170 86
2002-07-05 05:54:38 51°11.523 2°45.571 10.4 261 13.6 101160 86
2002-07-05 05:54:43 51°11.516 2°45.545 10.9 262 13.6 101160 86
2002-07-05 05:54:49 51°11.507 2°45.512 10.5 259 13.7 101170 86
2002-07-05 05:54:54 51°11.5 2°45.485 9.8 261 13.7 101170 86
2002-07-05 05:54:59 51°11.493 2°45.458 10 256 13.7 101170 86
2002-07-05 05:55:03 51°11.487 2°45.436 10.1 259 13.7 101170 86
2002-07-05 05:55:09 51°11.479 2°45.404 10.1 256 13.7 101160 86
2002-07-05 05:55:13 51°11.473 2°45.383 11.1 260 13.7 101160 86
2002-07-05 05:55:19 51°11.464 2°45.35 10.3 257 13.7 101160 86
2002-07-05 05:55:23 51°11.458 2°45.329 10.6 255 13.7 101160 86
2002-07-05 05:55:28 51°11.451 2°45.302 10.8 258 13.7 101160 86
2002-07-05 05:55:34 51°11.442 2°45.27 10.6 257 13.7 101160 86
2002-07-05 05:55:39 51°11.435 2°45.243 10.8 262 13.7 101160 86
2002-07-05 05:55:43 51°11.429 2°45.221 10 259 13.7 101160 86
2002-07-05 05:55:48 51°11.421 2°45.195 10.9 259 13.7 101160 86
2002-07-05 05:55:53 51°11.414 2°45.168 11.1 261 13.7 101160 86
2002-07-05 05:55:58 51°11.407 2°45.141 11 258 13.7 101140 86
2002-07-05 05:56:03 51°11.4 2°45.114 10.4 259 13.7 101140 86
2002-07-05 05:56:08 51°11.393 2°45.087 10.6 256 13.7 101160 86
2002-07-05 05:56:13 51°11.385 2°45.06 10 258 13.7 101160 86
2002-07-05 05:56:19 51°11.376 2°45.028 10.6 258 13.7 101160 86
2002-07-05 05:56:24 51°11.369 2°45.001 10.3 257 13.7 101160 86
2002-07-05 05:56:28 51°11.363 2°44.979 10.9 260 13.7 101150 86
2002-07-05 05:56:33 51°11.356 2°44.953 9.8 261 13.7 101150 86
2002-07-05 05:56:39 51°11.347 2°44.921 10.8 258 13.7 101150 86
2002-07-05 05:56:43 51°11.341 2°44.899 11.2 263 13.7 101150 86
2002-07-05 05:56:49 51°11.333 2°44.867 11.9 261 13.7 101160 86
2002-07-05 05:56:54 51°11.325 2°44.84 11.4 265 13.7 101160 86
2002-07-05 05:56:58 51°11.32 2°44.818 10.7 264 13.8 101160 86
2002-07-05 05:57:03 51°11.313 2°44.791 10.3 264 13.8 101160 86
2002-07-05 05:57:09 51°11.305 2°44.759 10 262 13.8 101160 86
2002-07-05 05:57:13 51°11.299 2°44.737 10.2 263 13.8 101160 86
2002-07-05 05:57:19 51°11.291 2°44.705 10.3 261 13.8 101160 86
2002-07-05 05:57:24 51°11.284 2°44.677 9.8 260 13.8 101160 86
2002-07-05 05:57:28 51°11.279 2°44.656 10.4 260 13.8 101150 86
2002-07-05 05:57:33 51°11.272 2°44.629 10.4 255 13.8 101150 86
2002-07-05 05:57:39 51°11.264 2°44.596 10.8 259 13.8 101160 86
2002-07-05 05:57:43 51°11.259 2°44.574 10.3 261 13.8 101160 86
2002-07-05 05:57:49 51°11.251 2°44.541 10.2 263 13.8 101150 86
2002-07-05 05:57:53 51°11.245 2°44.52 9.5 262 13.8 101150 86
2002-07-05 05:57:59 51°11.238 2°44.487 9.9 263 13.8 101150 86
2002-07-05 05:58:03 51°11.232 2°44.465 9 259 13.8 101150 86
2002-07-05 05:58:08 51°11.226 2°44.438 10.7 264 13.8 101150 86
2002-07-05 05:58:14 51°11.218 2°44.405 10 262 13.8 101150 86
2002-07-05 05:58:18 51°11.213 2°44.383 9.4 259 13.8 101160 86
2002-07-05 05:58:24 51°11.205 2°44.351 10.1 260 13.8 101160 86
2002-07-05 05:58:28 51°11.199 2°44.329 10.5 261 13.8 101160 86
2002-07-05 05:58:33 51°11.193 2°44.302 10.5 258 13.8 101160 86
2002-07-05 05:58:39 51°11.185 2°44.27 10.6 260 13.8 101160 86
2002-07-05 05:58:43 51°11.18 2°44.248 11.4 261 13.8 101160 86
2002-07-05 05:58:48 51°11.173 2°44.221 10.7 263 13.8 101160 86
2002-07-05 05:58:54 51°11.166 2°44.188 10.7 261 13.8 101160 86
2002-07-05 05:58:59 51°11.159 2°44.161 11 263 13.8 101150 86
2002-07-05 05:59:03 51°11.154 2°44.139 10.1 259 13.8 101150 86
2002-07-05 05:59:09 51°11.146 2°44.107 11.2 260 13.8 101150 86
2002-07-05 05:59:13 51°11.141 2°44.085 9.9 258 13.8 101150 86
2002-07-05 05:59:19 51°11.133 2°44.052 10.9 263 13.8 101160 85
2002-07-05 05:59:23 51°11.128 2°44.031 10.1 263 13.8 101160 85
2002-07-05 05:59:28 51°11.121 2°44.004 10.4 265 13.8 101150 86
2002-07-05 05:59:34 51°11.112 2°43.972 10.2 266 13.8 101150 86
2002-07-05 05:59:38 51°11.106 2°43.95 10.5 259 13.8 101150 86
2002-07-05 05:59:44 51°11.099 2°43.918 10.5 263 13.8 101150 86
2002-07-05 05:59:49 51°11.092 2°43.89 11.2 262 13.8 101150 85
2002-07-05 05:59:53 51°11.087 2°43.869 10.6 266 13.8 101150 85
2002-07-05 05:59:58 51°11.08 2°43.841 10.1 266 13.8 101160 86
2002-07-05 06:00:03 51°11.074 2°43.814 10.4 263 13.8 101160 86
2002-07-05 06:00:08 51°11.067 2°43.787 10.3 263 13.8 101160 85
2002-07-05 06:00:14 51°11.059 2°43.755 10.4 267 13.8 101160 85
2002-07-05 06:00:19 51°11.052 2°43.727 10.1 265 13.8 101160 85
2002-07-05 06:00:24 51°11.046 2°43.7 10.6 263 13.8 101160 85
2002-07-05 06:00:28 51°11.04 2°43.678 11 267 13.8 101160 85
2002-07-05 06:00:33 51°11.034 2°43.652 11.5 267 13.8 101160 85
2002-07-05 06:00:39 51°11.026 2°43.62 10.4 266 13.8 101160 86
2002-07-05 06:00:44 51°11.019 2°43.593 9.3 262 13.8 101160 86
2002-07-05 06:00:49 51°11.012 2°43.566 10.4 264 13.8 101160 86
2002-07-05 06:00:54 51°11.005 2°43.539 9.8 261 13.8 101160 86
2002-07-05 06:00:59 51°10.999 2°43.512 9.9 264 13.8 101160 85
2002-07-05 06:01:03 51°10.994 2°43.491 9.7 265 13.8 101160 85
2002-07-05 06:01:08 51°10.987 2°43.464 10.9 266 13.8 101160 85
2002-07-05 06:01:14 51°10.979 2°43.432 9.5 265 13.8 101160 85
2002-07-05 06:01:19 51°10.973 2°43.405 11 263 13.8 101160 85
2002-07-05 06:01:23 51°10.968 2°43.383 10.7 265 13.8 101160 85
2002-07-05 06:01:28 51°10.961 2°43.357 10.3 265 13.8 101150 85
2002-07-05 06:01:33 51°10.954 2°43.33 10.4 265 13.8 101150 85
2002-07-05 06:01:38 51°10.947 2°43.303 10 262 13.8 101160 85
2002-07-05 06:01:43 51°10.941 2°43.276 10 264 13.8 101160 85
2002-07-05 06:01:48 51°10.934 2°43.249 10.3 263 13.8 101160 85
2002-07-05 06:01:53 51°10.927 2°43.222 9.9 264 13.8 101160 85
2002-07-05 06:01:58 51°10.921 2°43.196 9.8 265 13.8 101160 86
2002-07-05 06:02:03 51°10.914 2°43.169 9.4 263 13.8 101160 86
2002-07-05 06:02:08 51°10.907 2°43.142 10.1 265 13.8 101170 86
2002-07-05 06:02:13 51°10.901 2°43.115 10.6 267 13.8 101170 86
2002-07-05 06:02:19 51°10.892 2°43.083 10.4 264 13.8 101170 86
2002-07-05 06:02:24 51°10.886 2°43.056 10.5 263 13.8 101160 86
2002-07-05 06:02:28 51°10.88 2°43.035 10.2 263 13.8 101160 86
2002-07-05 06:02:33 51°10.873 2°43.008 10.1 264 13.8 101160 86
2002-07-05 06:02:39 51°10.865 2°42.975 10.6 270 13.8 101160 86
2002-07-05 06:02:43 51°10.86 2°42.954 9.6 265 13.8 101160 86
2002-07-05 06:02:48 51°10.854 2°42.927 10.6 262 13.8 101160 86
2002-07-05 06:02:54 51°10.846 2°42.895 10 265 13.8 101160 86
2002-07-05 06:02:58 51°10.84 2°42.873 10 262 13.9 101160 86
2002-07-05 06:03:03 51°10.834 2°42.846 10.6 267 13.9 101160 86
2002-07-05 06:03:08 51°10.827 2°42.819 10.4 264 13.8 101160 86
2002-07-05 06:03:14 51°10.819 2°42.787 10.9 263 13.8 101160 86
2002-07-05 06:03:19 51°10.812 2°42.76 10.4 264 13.9 101160 86
2002-07-05 06:03:23 51°10.807 2°42.739 10.7 266 13.9 101160 86
2002-07-05 06:03:28 51°10.8 2°42.712 10.1 267 13.9 101160 86
2002-07-05 06:03:33 51°10.794 2°42.685 9.6 263 13.9 101160 86
2002-07-05 06:03:39 51°10.787 2°42.652 10.4 260 13.9 101160 86
2002-07-05 06:03:43 51°10.782 2°42.63 9.6 261 13.9 101160 86
2002-07-05 06:03:48 51°10.776 2°42.603 9.3 259 13.9 101150 86
2002-07-05 06:03:53 51°10.771 2°42.576 8.9 267 13.9 101150 86
2002-07-05 06:03:58 51°10.766 2°42.548 8.9 266 13.9 101160 86
2002-07-05 06:04:03 51°10.76 2°42.521 8.9 261 13.9 101160 86
2002-07-05 06:04:08 51°10.754 2°42.493 10.2 262 13.9 101150 86
2002-07-05 06:04:13 51°10.748 2°42.466 9.8 260 13.9 101150 86
2002-07-05 06:04:19 51°10.741 2°42.433 10.3 264 13.9 101150 86
2002-07-05 06:04:24 51°10.735 2°42.406 10.4 264 13.9 101150 86
2002-07-05 06:04:29 51°10.73 2°42.378 10.4 263 13.9 101160 86
2002-07-05 06:04:33 51°10.725 2°42.356 9.4 262 13.9 101160 86
2002-07-05 06:04:39 51°10.719 2°42.324 10.5 263 13.9 101160 86
2002-07-05 06:04:43 51°10.714 2°42.302 9.9 263 13.9 101150 86
2002-07-05 06:04:49 51°10.707 2°42.269 10.8 262 13.9 101150 86
2002-07-05 06:04:53 51°10.703 2°42.247 10.5 262 13.9 101150 86
2002-07-05 06:04:59 51°10.696 2°42.214 9.9 266 13.9 101160 86
2002-07-05 06:05:03 51°10.691 2°42.192 9.4 265 13.9 101160 86
2002-07-05 06:05:08 51°10.686 2°42.165 10.1 264 13.9 101150 86
2002-07-05 06:05:13 51°10.68 2°42.137 9.6 265 13.9 101150 86
2002-07-05 06:05:18 51°10.674 2°42.11 9.6 265 13.9 101150 86
2002-07-05 06:05:23 51°10.668 2°42.083 9.5 263 13.9 101150 86
2002-07-05 06:05:28 51°10.662 2°42.055 9.2 261 13.9 101160 85
2002-07-05 06:05:34 51°10.656 2°42.023 9.3 259 13.9 101160 85
2002-07-05 06:05:38 51°10.651 2°42.001 11.3 259 13.9 101150 86
2002-07-05 06:05:43 51°10.646 2°41.973 11.2 266 13.9 101150 86
2002-07-05 06:05:48 51°10.64 2°41.946 9.8 262 13.9 101150 86
2002-07-05 06:05:53 51°10.634 2°41.919 10.4 263 13.9 101150 85
2002-07-05 06:05:59 51°10.627 2°41.886 9.7 266 13.9 101150 86
2002-07-05 06:06:03 51°10.622 2°41.864 9.5 262 13.9 101150 86
2002-07-05 06:06:08 51°10.617 2°41.837 9.6 262 13.9 101150 85
2002-07-05 06:06:13 51°10.611 2°41.81 10.6 261 13.9 101150 85
2002-07-05 06:06:19 51°10.604 2°41.778 10.7 267 13.9 101150 85
2002-07-05 06:06:23 51°10.599 2°41.756 11 266 13.9 101150 85
2002-07-05 06:06:28 51°10.594 2°41.728 10.6 264 13.9 101150 86
2002-07-05 06:06:33 51°10.588 2°41.701 10.1 260 13.9 101150 86
2002-07-05 06:06:39 51°10.581 2°41.668 10.3 268 13.9 101140 86
2002-07-05 06:06:43 51°10.577 2°41.646 10.3 265 13.9 101140 86
2002-07-05 06:06:49 51°10.57 2°41.613 9.9 266 13.9 101140 86
2002-07-05 06:06:53 51°10.566 2°41.591 10.4 265 13.9 101150 86
2002-07-05 06:06:58 51°10.56 2°41.564 9.5 268 13.9 101140 86
2002-07-05 06:07:03 51°10.554 2°41.537 10 270 13.9 101140 86
2002-07-05 06:07:09 51°10.548 2°41.504 10 271 13.9 101140 86
2002-07-05 06:07:14 51°10.542 2°41.477 9.8 269 13.9 101140 85
2002-07-05 06:07:18 51°10.537 2°41.455 9.7 268 13.9 101150 85
2002-07-05 06:07:23 51°10.532 2°41.428 9.5 266 13.9 101150 85
2002-07-05 06:07:28 51°10.525 2°41.401 9.8 263 13.9 101150 85
2002-07-05 06:07:33 51°10.52 2°41.373 10.8 262 13.9 101150 85
2002-07-05 06:07:39 51°10.513 2°41.341 10.4 265 13.9 101150 85
2002-07-05 06:07:43 51°10.508 2°41.319 9.7 266 13.9 101150 85
2002-07-05 06:07:49 51°10.501 2°41.286 9.8 270 13.9 101140 85
2002-07-05 06:07:54 51°10.495 2°41.259 10 270 13.9 101140 85
2002-07-05 06:07:58 51°10.49 2°41.238 10 266 13.9 101140 85
2002-07-05 06:08:03 51°10.484 2°41.211 10.5 264 13.9 101140 85
2002-07-05 06:08:09 51°10.477 2°41.178 9.6 265 13.9 101150 85
2002-07-05 06:08:13 51°10.473 2°41.156 10.7 265 13.9 101150 85
2002-07-05 06:08:19 51°10.466 2°41.123 9.7 262 13.9 101150 85
2002-07-05 06:08:23 51°10.461 2°41.101 9.9 263 13.9 101150 85
2002-07-05 06:08:29 51°10.454 2°41.069 10.2 268 13.9 101150 85
2002-07-05 06:08:33 51°10.45 2°41.046 9.7 266 13.9 101150 85
2002-07-05 06:08:39 51°10.443 2°41.014 9.6 269 13.9 101150 85
2002-07-05 06:08:42 51°10.44 2°40.997 10.4 266 13.9 101150 85
2002-07-05 06:08:48 51°10.433 2°40.965 9.5 268 13.9 101150 85
2002-07-05 06:08:53 51°10.427 2°40.937 10 273 13.9 101150 85
2002-07-05 06:08:58 51°10.421 2°40.91 9.9 267 13.9 101140 85
2002-07-05 06:09:03 51°10.415 2°40.883 10.3 268 13.9 101140 85
2002-07-05 06:09:08 51°10.409 2°40.856 9.7 268 13.9 101150 85
2002-07-05 06:09:13 51°10.404 2°40.828 10.7 269 13.9 101150 85
2002-07-05 06:09:19 51°10.397 2°40.795 10.2 270 13.9 101150 85
2002-07-05 06:09:23 51°10.393 2°40.773 9.9 272 13.9 101150 85
2002-07-05 06:09:28 51°10.387 2°40.746 9.2 266 13.9 101150 85
2002-07-05 06:09:33 51°10.382 2°40.719 9.1 264 13.9 101150 85
2002-07-05 06:09:38 51°10.376 2°40.692 9.3 266 13.9 101150 85
2002-07-05 06:09:43 51°10.371 2°40.665 9.9 268 13.9 101150 85
2002-07-05 06:09:48 51°10.365 2°40.638 10.3 268 13.9 101150 85
2002-07-05 06:09:53 51°10.359 2°40.611 9.2 265 13.9 101160 85
2002-07-05 06:09:58 51°10.354 2°40.584 11 267 13.9 101150 86
2002-07-05 06:10:03 51°10.348 2°40.557 10.4 270 13.9 101150 86
2002-07-05 06:10:08 51°10.343 2°40.53 9.7 268 13.9 101150 86
2002-07-05 06:10:14 51°10.336 2°40.497 9.6 270 13.9 101150 86
2002-07-05 06:10:18 51°10.332 2°40.475 9.5 268 13.9 101150 86
2002-07-05 06:10:23 51°10.326 2°40.448 9.9 270 13.9 101150 86
2002-07-05 06:10:28 51°10.32 2°40.421 9.8 267 13.9 101140 85
2002-07-05 06:10:34 51°10.313 2°40.389 9.8 267 13.9 101140 85
2002-07-05 06:10:39 51°10.308 2°40.362 10 267 13.9 101150 86
2002-07-05 06:10:43 51°10.302 2°40.341 10.3 270 13.9 101150 86
2002-07-05 06:10:49 51°10.295 2°40.309 10.2 269 13.9 101150 86
2002-07-05 06:10:53 51°10.29 2°40.288 10.3 269 13.9 101150 86
2002-07-05 06:10:59 51°10.282 2°40.257 10.5 268 13.9 101140 86
2002-07-05 06:11:03 51°10.276 2°40.235 9.9 263 13.9 101140 86
2002-07-05 06:11:09 51°10.269 2°40.204 9.9 267 13.9 101140 86
2002-07-05 06:11:13 51°10.263 2°40.183 10.2 270 13.9 101140 86
2002-07-05 06:11:19 51°10.255 2°40.151 10.1 266 13.9 101150 85
2002-07-05 06:11:23 51°10.25 2°40.13 10.3 267 13.9 101150 85
2002-07-05 06:11:28 51°10.243 2°40.104 9.6 266 13.9 101140 85
2002-07-05 06:11:34 51°10.235 2°40.072 10.6 268 13.9 101140 85
2002-07-05 06:11:39 51°10.229 2°40.046 10.2 267 13.9 101140 85
2002-07-05 06:11:43 51°10.223 2°40.025 10.6 261 13.9 101150 86
2002-07-05 06:11:48 51°10.217 2°39.998 10.4 267 13.9 101150 86
2002-07-05 06:11:53 51°10.21 2°39.971 11.3 264 13.9 101150 86
2002-07-05 06:11:58 51°10.204 2°39.945 10.9 269 13.9 101150 86
2002-07-05 06:12:03 51°10.197 2°39.918 11.5 268 13.9 101150 86
2002-07-05 06:12:08 51°10.191 2°39.892 10.8 265 13.9 101140 86
2002-07-05 06:12:13 51°10.185 2°39.865 10.7 268 13.9 101140 86
2002-07-05 06:12:19 51°10.177 2°39.833 11 269 13.9 101130 86
2002-07-05 06:12:23 51°10.172 2°39.812 10.8 269 13.9 101130 86
2002-07-05 06:12:29 51°10.163 2°39.781 10.2 264 13.9 101150 86
2002-07-05 06:12:33 51°10.158 2°39.76 11 265 13.9 101150 86
2002-07-05 06:12:39 51°10.15 2°39.728 10.8 270 13.9 101140 86
2002-07-05 06:12:43 51°10.145 2°39.707 10.6 269 13.9 101140 86
2002-07-05 06:12:49 51°10.137 2°39.675 9.9 270 14 101150 86
2002-07-05 06:12:53 51°10.132 2°39.654 10.5 265 14 101150 86
2002-07-05 06:12:58 51°10.125 2°39.628 10.4 267 14 101130 86
2002-07-05 06:13:03 51°10.118 2°39.601 10.3 270 14 101130 86
2002-07-05 06:13:08 51°10.111 2°39.575 9.2 267 14 101130 86
2002-07-05 06:13:13 51°10.104 2°39.549 10.6 262 14 101150 86
2002-07-05 06:13:19 51°10.097 2°39.518 10.2 263 14 101150 86
2002-07-05 06:13:23 51°10.091 2°39.497 10.6 267 14 101150 86
2002-07-05 06:13:29 51°10.084 2°39.465 9.7 264 14 101150 86
2002-07-05 06:13:33 51°10.078 2°39.444 9.4 267 14 101150 86
2002-07-05 06:13:38 51°10.072 2°39.417 9.9 264 14 101140 86
2002-07-05 06:13:43 51°10.065 2°39.39 10.1 266 14 101140 86
2002-07-05 06:13:48 51°10.059 2°39.364 10.2 267 14 101140 86
2002-07-05 06:13:53 51°10.052 2°39.338 10.5 267 14 101140 86
2002-07-05 06:13:59 51°10.044 2°39.306 10.3 264 14 101140 86
2002-07-05 06:14:03 51°10.038 2°39.285 10.2 265 14 101140 86
2002-07-05 06:14:09 51°10.031 2°39.253 10.5 268 14 101140 86
2002-07-05 06:14:13 51°10.025 2°39.232 10.1 271 14 101140 86
2002-07-05 06:14:18 51°10.019 2°39.206 10.7 271 14 101140 86
2002-07-05 06:14:23 51°10.012 2°39.179 9.7 265 14 101140 86
2002-07-05 06:14:28 51°10.006 2°39.153 10.5 271 14 101140 86
2002-07-05 06:14:33 51°9.999 2°39.126 9.9 267 14 101140 85
2002-07-05 06:14:39 51°9.991 2°39.095 10.3 266 14 101150 85
2002-07-05 06:14:43 51°9.985 2°39.073 10.5 264 14 101150 85
2002-07-05 06:14:48 51°9.979 2°39.047 10.7 263 14 101130 85
2002-07-05 06:14:54 51°9.971 2°39.015 10.2 264 14 101130 85
2002-07-05 06:14:58 51°9.966 2°38.994 10 262 14 101140 85
2002-07-05 06:15:03 51°9.959 2°38.967 10.9 266 14 101140 85
2002-07-05 06:15:08 51°9.952 2°38.94 10.5 268 14 101140 85
2002-07-05 06:15:14 51°9.944 2°38.909 9.9 265 14 101140 85
2002-07-05 06:15:18 51°9.939 2°38.887 10.4 269 14 101130 85
2002-07-05 06:15:24 51°9.931 2°38.856 10.1 269 14 101130 85
2002-07-05 06:15:29 51°9.924 2°38.829 10.9 270 14 101130 85
2002-07-05 06:15:33 51°9.919 2°38.808 10.2 268 14 101130 85
2002-07-05 06:15:39 51°9.911 2°38.776 10.4 269 14 101140 85
2002-07-05 06:15:42 51°9.907 2°38.76 11.2 268 14 101140 85
2002-07-05 06:15:48 51°9.899 2°38.728 10.5 272 14 101140 85
2002-07-05 06:15:53 51°9.893 2°38.702 10.7 271 14 101140 85
2002-07-05 06:15:58 51°9.886 2°38.675 10.6 269 14 101140 85
2002-07-05 06:16:03 51°9.879 2°38.649 11.5 268 14 101140 85
2002-07-05 06:16:09 51°9.871 2°38.617 10 263 14 101140 85
2002-07-05 06:16:13 51°9.866 2°38.596 10.6 267 14 101130 85
2002-07-05 06:16:18 51°9.859 2°38.569 10.5 268 14 101140 85
2002-07-05 06:16:23 51°9.853 2°38.543 10.8 267 14 101140 85
2002-07-05 06:16:28 51°9.846 2°38.517 10.4 271 14 101130 85
2002-07-05 06:16:34 51°9.838 2°38.485 10.1 270 14 101130 85
2002-07-05 06:16:39 51°9.831 2°38.458 10.8 262 14 101140 85
2002-07-05 06:16:43 51°9.826 2°38.437 10.3 266 14 101140 85
2002-07-05 06:16:49 51°9.818 2°38.405 10.5 265 14 101130 85
2002-07-05 06:16:53 51°9.813 2°38.383 10.5 267 14 101130 85
2002-07-05 06:16:59 51°9.805 2°38.351 10.5 267 14 101140 85
2002-07-05 06:17:03 51°9.8 2°38.33 10.8 265 14 101140 85
2002-07-05 06:17:08 51°9.793 2°38.304 10.5 270 14 101130 85
2002-07-05 06:17:13 51°9.786 2°38.277 9.9 266 14 101130 85
2002-07-05 06:17:19 51°9.778 2°38.246 11 268 14 101120 85
2002-07-05 06:17:23 51°9.772 2°38.225 11 268 14 101120 85
2002-07-05 06:17:28 51°9.766 2°38.198 10.3 270 14 101130 85
2002-07-05 06:17:34 51°9.758 2°38.166 10.3 265 14 101130 85
2002-07-05 06:17:38 51°9.752 2°38.145 11.3 269 14 101140 85
2002-07-05 06:17:43 51°9.745 2°38.118 11 266 14 101140 85
2002-07-05 06:17:48 51°9.738 2°38.092 10.5 267 14 101130 85
2002-07-05 06:17:53 51°9.731 2°38.066 10.6 266 14 101130 85
2002-07-05 06:17:59 51°9.723 2°38.034 10.5 266 14 101130 85
2002-07-05 06:18:03 51°9.717 2°38.013 10 266 14 101130 85
2002-07-05 06:18:09 51°9.709 2°37.981 10.3 266 14 101130 85
2002-07-05 06:18:13 51°9.703 2°37.96 11 265 14 101130 85
2002-07-05 06:18:18 51°9.697 2°37.933 10.6 266 14 101130 85
2002-07-05 06:18:23 51°9.69 2°37.907 10.8 264 14 101130 85
2002-07-05 06:18:28 51°9.683 2°37.88 11.1 265 14 101130 85
2002-07-05 06:18:33 51°9.676 2°37.854 12.3 268 14 101130 85
2002-07-05 06:18:39 51°9.668 2°37.822 10.5 267 14 101140 85
2002-07-05 06:18:43 51°9.663 2°37.801 10.5 270 14 101140 85
2002-07-05 06:18:49 51°9.655 2°37.769 10.8 264 14 101130 85
2002-07-05 06:18:53 51°9.649 2°37.748 10 261 14 101130 85
2002-07-05 06:18:58 51°9.642 2°37.721 10.6 271 14 101120 85
2002-07-05 06:19:03 51°9.635 2°37.695 9.6 265 14 101120 85
2002-07-05 06:19:08 51°9.629 2°37.668 10.6 263 14 101140 85
2002-07-05 06:19:13 51°9.622 2°37.642 9.9 260 14 101140 85
2002-07-05 06:19:19 51°9.613 2°37.61 10.6 266 14 101120 85
2002-07-05 06:19:23 51°9.608 2°37.589 10.6 266 14 101120 85
2002-07-05 06:19:29 51°9.599 2°37.558 11.1 268 14 101140 85
2002-07-05 06:19:33 51°9.594 2°37.537 10.6 274 14 101140 85
2002-07-05 06:19:38 51°9.586 2°37.51 10 267 14 101130 85
2002-07-05 06:19:43 51°9.58 2°37.484 10.9 268 14 101130 85
2002-07-05 06:19:48 51°9.573 2°37.458 10.1 266 14 101140 85
2002-07-05 06:19:53 51°9.566 2°37.431 10.7 266 14 101140 85
2002-07-05 06:19:59 51°9.558 2°37.4 11.2 261 14 101120 85
2002-07-05 06:20:03 51°9.553 2°37.379 10.3 265 14 101120 85
2002-07-05 06:20:08 51°9.546 2°37.352 11.2 271 14 101140 85
2002-07-05 06:20:14 51°9.538 2°37.32 10.6 269 14 101140 85
2002-07-05 06:20:18 51°9.533 2°37.299 11.6 268 14 101130 85
2002-07-05 06:20:23 51°9.525 2°37.273 10.9 266 14 101130 85
2002-07-05 06:20:28 51°9.519 2°37.247 10 267 14 101130 85
2002-07-05 06:20:34 51°9.51 2°37.215 10.4 267 14 101130 85
2002-07-05 06:20:39 51°9.503 2°37.189 10.3 266 14 101140 85
2002-07-05 06:20:43 51°9.497 2°37.168 9.5 268 14 101140 85
2002-07-05 06:20:49 51°9.489 2°37.137 10.3 266 14 101140 85
2002-07-05 06:20:53 51°9.483 2°37.116 10.6 266 14 101130 85
2002-07-05 06:20:58 51°9.476 2°37.089 10.2 271 14 101140 85
2002-07-05 06:21:03 51°9.47 2°37.063 10.5 265 14 101140 85
2002-07-05 06:21:08 51°9.462 2°37.037 10.4 261 14 101130 85
2002-07-05 06:21:14 51°9.454 2°37.005 10.4 263 14 101130 85
2002-07-05 06:21:18 51°9.448 2°36.984 10.6 260 14 101140 85
2002-07-05 06:21:23 51°9.441 2°36.957 10.5 260 14 101140 85
2002-07-05 06:21:28 51°9.434 2°36.931 9.9 265 14 101120 85
2002-07-05 06:21:33 51°9.427 2°36.905 10.8 268 14 101120 85
2002-07-05 06:21:39 51°9.42 2°36.873 10.5 267 14 101130 85
2002-07-05 06:21:43 51°9.414 2°36.854 10 270 14 101130 85
2002-07-05 06:21:48 51°9.408 2°36.829 9.9 268 14 101130 85
2002-07-05 06:21:53 51°9.402 2°36.804 9.6 268 14 101130 85
2002-07-05 06:21:58 51°9.395 2°36.78 9.1 266 14 101130 85
2002-07-05 06:22:03 51°9.389 2°36.757 9.7 263 14 101130 85
2002-07-05 06:22:08 51°9.383 2°36.734 9.7 266 14 101130 85
2002-07-05 06:22:13 51°9.377 2°36.71 9.9 269 14 101130 85
2002-07-05 06:22:18 51°9.371 2°36.687 10.3 269 14.1 101140 85
2002-07-05 06:22:24 51°9.364 2°36.66 10.1 271 14.1 101140 85
2002-07-05 06:22:28 51°9.359 2°36.641 8.8 265 14.1 101140 85
2002-07-05 06:22:33 51°9.353 2°36.618 9.6 270 14.1 101140 85
2002-07-05 06:22:39 51°9.345 2°36.592 9.1 265 14.1 101140 85
2002-07-05 06:22:44 51°9.34 2°36.57 9.3 273 14 101130 85
2002-07-05 06:22:48 51°9.335 2°36.553 8.6 275 14.1 101140 85
2002-07-05 06:22:54 51°9.328 2°36.529 9.1 277 14.1 101140 85
2002-07-05 06:22:58 51°9.324 2°36.514 8 280 14.1 101130 85
2002-07-05 06:23:03 51°9.32 2°36.495 7.8 282 14.1 101130 85
2002-07-05 06:23:08 51°9.316 2°36.477 8.5 282 14.1 101130 85
2002-07-05 06:23:13 51°9.313 2°36.459 8.1 282 14.1 101130 85
2002-07-05 06:23:19 51°9.311 2°36.437 7.5 286 14 101140 85
2002-07-05 06:23:23 51°9.31 2°36.423 7.4 283 14 101140 85
2002-07-05 06:23:28 51°9.309 2°36.406 6.6 293 14 101150 85
2002-07-05 06:23:34 51°9.309 2°36.387 6.7 294 14 101150 85
2002-07-05 06:23:38 51°9.31 2°36.374 6.9 295 14 101160 85
2002-07-05 06:23:43 51°9.31 2°36.36 6.2 299 14 101160 85
2002-07-05 06:23:48 51°9.31 2°36.346 6 297 14 101150 85
2002-07-05 06:23:53 51°9.31 2°36.332 7.1 297 14 101150 85
2002-07-05 06:23:59 51°9.31 2°36.317 7.4 301 14 101160 85
2002-07-05 06:24:04 51°9.31 2°36.305 6.5 298 14 101160 85
2002-07-05 06:24:08 51°9.309 2°36.296 6.2 298 14 101150 85
2002-07-05 06:24:13 51°9.309 2°36.286 6.7 297 14 101150 85
2002-07-05 06:24:19 51°9.308 2°36.273 5.7 293 14 101160 85
2002-07-05 06:24:23 51°9.308 2°36.266 5.9 293 14 101160 85
2002-07-05 06:24:28 51°9.307 2°36.257 5.6 291 14 101150 85
2002-07-05 06:24:33 51°9.306 2°36.248 6.2 296 14 101150 85
2002-07-05 06:24:39 51°9.304 2°36.239 6.2 295 14 101160 85
2002-07-05 06:24:43 51°9.303 2°36.234 6 296 14 101160 85
2002-07-05 06:24:49 51°9.302 2°36.228 6 292 14 101160 85
2002-07-05 06:24:53 51°9.302 2°36.225 5.7 285 14.1 101150 85
2002-07-05 06:24:58 51°9.301 2°36.222 5.4 291 14.1 101150 85
2002-07-05 06:25:03 51°9.3 2°36.219 6.1 291 14.1 101150 85
2002-07-05 06:25:08 51°9.299 2°36.216 5.7 293 14.1 101160 85
2002-07-05 06:25:13 51°9.298 2°36.213 6 296 14.1 101160 85
2002-07-05 06:25:19 51°9.297 2°36.21 6.2 295 14.1 101150 85
2002-07-05 06:25:24 51°9.296 2°36.208 6.1 295 14.1 101150 85
2002-07-05 06:25:28 51°9.295 2°36.207 5.7 289 14.1 101160 85
2002-07-05 06:25:33 51°9.294 2°36.205 5.3 286 14.1 101160 85
2002-07-05 06:25:38 51°9.292 2°36.203 5.6 293 14.1 101160 85
2002-07-05 06:25:43 51°9.291 2°36.201 5.7 289 14.1 101160 85
2002-07-05 06:25:48 51°9.29 2°36.2 4.7 284 14.1 101160 85
2002-07-05 06:25:54 51°9.289 2°36.198 5.7 293 14.1 101160 85
2002-07-05 06:25:59 51°9.288 2°36.197 6 287 14.1 101150 85
2002-07-05 06:26:03 51°9.288 2°36.197 5.8 286 14.1 101150 85
2002-07-05 06:26:09 51°9.287 2°36.196 5.5 287 14.1 101160 85
2002-07-05 06:26:13 51°9.286 2°36.195 5.4 284 14.1 101160 85
2002-07-05 06:26:19 51°9.285 2°36.195 5.4 285 14.1 101150 85
2002-07-05 06:26:23 51°9.285 2°36.194 5.7 285 14.1 101150 85
2002-07-05 06:26:28 51°9.284 2°36.194 5.7 289 14.1 101150 85
2002-07-05 06:26:34 51°9.283 2°36.194 5.3 294 14.1 101150 85
2002-07-05 06:26:39 51°9.283 2°36.193 5.6 284 14.1 101150 85
2002-07-05 06:26:43 51°9.282 2°36.193 6.9 286 14.1 101150 85
2002-07-05 06:26:49 51°9.282 2°36.193 6.9 282 14.1 101160 85
2002-07-05 06:26:54 51°9.281 2°36.193 6.2 284 14.1 101160 85
2002-07-05 06:26:58 51°9.281 2°36.193 6.5 291 14.1 101150 85
2002-07-05 06:27:03 51°9.28 2°36.193 6.4 291 14.1 101150 85
2002-07-05 06:27:08 51°9.28 2°36.193 6.1 289 14.1 101160 85
2002-07-05 06:27:13 51°9.279 2°36.193 6 285 14.1 101160 85
2002-07-05 06:27:18 51°9.279 2°36.194 6 290 14.1 101150 85
2002-07-05 06:27:23 51°9.279 2°36.194 6 291 14.1 101150 85
2002-07-05 06:27:28 51°9.279 2°36.195 5.8 285 14.1 101160 85
2002-07-05 06:27:33 51°9.279 2°36.195 5.7 290 14.1 101160 85
2002-07-05 06:27:39 51°9.279 2°36.197 7 290 14.1 101160 85
2002-07-05 06:27:43 51°9.28 2°36.197 6.6 286 14.1 101160 85
2002-07-05 06:27:48 51°9.28 2°36.198 6.4 292 14.1 101160 85
2002-07-05 06:27:53 51°9.28 2°36.2 6.3 291 14.1 101150 85
2002-07-05 06:27:58 51°9.281 2°36.201 5.4 295 14.1 101160 85
2002-07-05 06:28:03 51°9.282 2°36.203 5.7 298 14.1 101160 85
2002-07-05 06:28:10 51°9.283 2°36.206 5.8 296 14.1 101150 85
2002-07-05 06:28:13 51°9.284 2°36.207 5.5 298 14.1 101150 85
2002-07-05 06:28:19 51°9.285 2°36.21 5.2 304 14.1 101150 85
2002-07-05 06:28:23 51°9.286 2°36.212 5.6 295 14 101150 85
2002-07-05 06:28:28 51°9.287 2°36.214 5.5 289 14 101150 85
2002-07-05 06:28:33 51°9.288 2°36.217 6 300 14 101150 85
2002-07-05 06:28:39 51°9.29 2°36.221 5.6 300 14 101160 85
2002-07-05 06:28:44 51°9.291 2°36.224 6 299 14 101160 85
2002-07-05 06:28:49 51°9.293 2°36.227 6 294 14 101150 85
2002-07-05 06:28:53 51°9.294 2°36.229 5.9 297 14 101150 85
2002-07-05 06:28:59 51°9.296 2°36.233 6 299 14 101150 85
2002-07-05 06:29:03 51°9.297 2°36.235 4.8 307 14.1 101150 85
2002-07-05 06:29:08 51°9.298 2°36.239 4.7 310 14.1 101160 85
2002-07-05 06:29:13 51°9.3 2°36.243 3.4 308 14.1 101160 85
2002-07-05 06:29:19 51°9.302 2°36.247 1.9 317 14.1 101160 85
2002-07-05 06:29:23 51°9.303 2°36.25 2.6 318 14.1 101160 85
2002-07-05 06:29:29 51°9.305 2°36.255 2.1 320 14 101160 85
2002-07-05 06:29:34 51°9.306 2°36.258 2.7 315 14 101160 85
2002-07-05 06:29:38 51°9.307 2°36.261 3.2 313 14 101160 85
2002-07-05 06:29:43 51°9.309 2°36.265 3.5 317 14 101160 85
2002-07-05 06:29:49 51°9.31 2°36.269 2.7 291 14 101150 85
2002-07-05 06:29:54 51°9.311 2°36.271 2.1 318 14 101150 85
2002-07-05 06:29:58 51°9.312 2°36.274 3 321 14 101160 85
2002-07-05 06:30:03 51°9.313 2°36.276 3 318 14 101160 85
2002-07-05 06:30:08 51°9.314 2°36.278 3.1 309 14.1 101160 85
2002-07-05 06:30:13 51°9.315 2°36.28 3.2 319 14.1 101160 85
2002-07-05 06:30:18 51°9.316 2°36.281 5 315 14.1 101160 85
2002-07-05 06:30:23 51°9.316 2°36.281 5.7 303 14.1 101160 85
2002-07-05 06:30:29 51°9.317 2°36.281 4.3 307 14.1 101160 85
2002-07-05 06:30:33 51°9.318 2°36.281 3.7 309 14.1 101160 85
2002-07-05 06:30:39 51°9.318 2°36.28 3.9 302 14.1 101160 85
2002-07-05 06:30:43 51°9.318 2°36.279 6.1 299 14.1 101160 85
2002-07-05 06:30:49 51°9.319 2°36.278 6.8 297 14.1 101160 85
2002-07-05 06:30:53 51°9.319 2°36.276 5.5 305 14.1 101160 85
2002-07-05 06:30:59 51°9.319 2°36.273 5.5 306 14.1 101150 85
2002-07-05 06:31:02 51°9.319 2°36.272 7.1 300 14.1 101150 85
2002-07-05 06:31:08 51°9.319 2°36.269 7 295 14.1 101160 85
2002-07-05 06:31:13 51°9.319 2°36.266 7.1 297 14.1 101160 85
2002-07-05 06:31:19 51°9.319 2°36.264 6.9 297 14 101150 85
2002-07-05 06:31:23 51°9.318 2°36.262 7.4 295 14 101150 85
2002-07-05 06:31:28 51°9.318 2°36.259 7 297 14 101150 85
2002-07-05 06:31:34 51°9.318 2°36.257 6.9 299 14 101150 85
2002-07-05 06:31:38 51°9.318 2°36.255 7.1 302 14.1 101150 85
2002-07-05 06:31:43 51°9.317 2°36.254 6.8 297 14.1 101150 85
2002-07-05 06:31:48 51°9.317 2°36.252 7.3 295 14 101150 85
2002-07-05 06:31:53 51°9.317 2°36.25 7 294 14 101150 85
2002-07-05 06:31:58 51°9.316 2°36.249 6.8 297 14 101150 85
2002-07-05 06:32:03 51°9.316 2°36.247 6.5 296 14 101150 85
2002-07-05 06:32:08 51°9.316 2°36.246 6.4 294 14 101150 85
2002-07-05 06:32:13 51°9.316 2°36.245 7.1 297 14 101150 85
2002-07-05 06:32:19 51°9.315 2°36.243 7.2 299 14 101160 85
2002-07-05 06:32:24 51°9.315 2°36.243 6.9 296 14 101160 85
2002-07-05 06:32:28 51°9.315 2°36.242 6.4 293 14 101150 85
2002-07-05 06:32:33 51°9.315 2°36.241 6.8 297 14 101150 85
2002-07-05 06:32:38 51°9.315 2°36.241 6.9 297 14 101160 85
2002-07-05 06:32:43 51°9.314 2°36.24 6.6 294 14 101160 85
2002-07-05 06:32:48 51°9.314 2°36.239 6.9 300 14 101150 85
2002-07-05 06:32:54 51°9.314 2°36.239 7.4 298 14 101150 85
2002-07-05 06:32:58 51°9.314 2°36.239 6.8 294 14 101150 85
2002-07-05 06:33:03 51°9.314 2°36.239 6.6 298 14 101150 85
2002-07-05 06:33:08 51°9.314 2°36.238 6.7 301 14 101150 85
2002-07-05 06:33:13 51°9.314 2°36.238 6 297 14 101150 85
2002-07-05 06:33:19 51°9.314 2°36.238 6.4 297 14 101140 85
2002-07-05 06:33:24 51°9.314 2°36.238 6.9 298 14 101140 85
2002-07-05 06:33:28 51°9.314 2°36.238 6.5 299 14 101150 85
2002-07-05 06:33:33 51°9.314 2°36.237 6.3 299 14 101150 85
2002-07-05 06:33:38 51°9.314 2°36.237 6.4 298 14 101160 85
2002-07-05 06:33:43 51°9.314 2°36.237 5.8 291 14 101160 85
2002-07-05 06:33:48 51°9.314 2°36.237 6.3 301 14 101150 85
2002-07-05 06:33:54 51°9.314 2°36.238 6.1 299 14 101150 85
2002-07-05 06:33:58 51°9.315 2°36.239 5.2 298 14 101150 85
2002-07-05 06:34:03 51°9.315 2°36.239 5.6 296 14 101150 85
2002-07-05 06:34:08 51°9.315 2°36.239 5.8 295 14.1 101140 85
2002-07-05 06:34:13 51°9.315 2°36.24 6.1 295 14.1 101140 85
2002-07-05 06:34:19 51°9.314 2°36.24 6.6 297 14.1 101150 86
2002-07-05 06:34:24 51°9.315 2°36.241 6.5 294 14.1 101150 86
2002-07-05 06:34:28 51°9.315 2°36.241 6.2 299 14.1 101150 86
2002-07-05 06:34:33 51°9.315 2°36.242 6.9 296 14.1 101150 86
2002-07-05 06:34:38 51°9.315 2°36.243 6.5 296 14.1 101150 86
2002-07-05 06:34:43 51°9.315 2°36.243 6.1 293 14.1 101150 86
2002-07-05 06:34:48 51°9.315 2°36.244 5.6 292 14.1 101150 86
2002-07-05 06:34:53 51°9.315 2°36.245 6.1 296 14.1 101150 86
2002-07-05 06:34:58 51°9.315 2°36.246 6.2 295 14.1 101160 85
2002-07-05 06:35:03 51°9.315 2°36.247 5.7 298 14.1 101160 85
2002-07-05 06:35:09 51°9.316 2°36.248 5.8 293 14.1 101150 85
2002-07-05 06:35:13 51°9.316 2°36.249 7 293 14.1 101150 85
2002-07-05 06:35:18 51°9.316 2°36.25 7.4 292 14.1 101150 85
2002-07-05 06:35:24 51°9.316 2°36.251 7.2 290 14.1 101150 85
2002-07-05 06:35:28 51°9.317 2°36.251 7 291 14.1 101150 85
2002-07-05 06:35:33 51°9.317 2°36.252 6.9 293 14.1 101150 85
2002-07-05 06:35:38 51°9.317 2°36.253 6.1 293 14.1 101150 85
2002-07-05 06:35:43 51°9.317 2°36.253 6.5 290 14.1 101150 85
2002-07-05 06:35:48 51°9.316 2°36.253 6.8 287 14 101140 85
2002-07-05 06:35:53 51°9.316 2°36.253 6.6 294 14 101140 85
2002-07-05 06:35:58 51°9.315 2°36.253 5.9 291 14 101140 85
2002-07-05 06:36:03 51°9.315 2°36.252 6.9 284 14 101140 85
2002-07-05 06:36:08 51°9.314 2°36.252 7 286 14 101150 85
2002-07-05 06:36:13 51°9.314 2°36.251 7.1 286 14 101150 85
2002-07-05 06:36:19 51°9.312 2°36.25 6.2 297 14 101150 85
2002-07-05 06:36:24 51°9.311 2°36.249 6.6 299 14 101150 85
2002-07-05 06:36:28 51°9.31 2°36.247 7.4 299 14 101150 85
2002-07-05 06:36:33 51°9.309 2°36.246 6.6 286 14 101150 85
2002-07-05 06:36:38 51°9.307 2°36.245 6.6 283 14 101140 85
2002-07-05 06:36:43 51°9.306 2°36.243 7.4 290 14 101140 85
2002-07-05 06:36:48 51°9.305 2°36.241 7.6 293 14 101150 85
2002-07-05 06:36:54 51°9.303 2°36.239 7.3 295 14 101150 85
2002-07-05 06:36:58 51°9.302 2°36.237 7.5 290 14 101150 85
2002-07-05 06:37:03 51°9.301 2°36.234 6.9 300 14 101150 85
2002-07-05 06:37:08 51°9.3 2°36.232 7.6 300 14 101150 85
2002-07-05 06:37:13 51°9.3 2°36.23 7.6 297 14 101150 85
2002-07-05 06:37:19 51°9.299 2°36.227 7.3 296 14 101150 85
2002-07-05 06:37:24 51°9.299 2°36.225 7.8 300 14 101150 85
2002-07-05 06:37:28 51°9.299 2°36.223 6.1 303 14 101150 85
2002-07-05 06:37:33 51°9.299 2°36.221 6.1 297 14 101150 85
2002-07-05 06:37:38 51°9.299 2°36.219 6.1 295 14 101150 85
2002-07-05 06:37:43 51°9.299 2°36.217 5.1 302 14 101150 85
2002-07-05 06:37:49 51°9.299 2°36.215 3.9 302 14 101150 85
2002-07-05 06:37:53 51°9.299 2°36.213 3.2 317 14 101150 85
2002-07-05 06:37:59 51°9.299 2°36.212 3.5 317 14 101150 85
2002-07-05 06:38:02 51°9.299 2°36.211 3.3 316 14 101150 85
2002-07-05 06:38:08 51°9.3 2°36.209 3.1 308 14 101150 85
2002-07-05 06:38:13 51°9.3 2°36.207 3.9 311 14 101150 85
2002-07-05 06:38:19 51°9.301 2°36.205 5.5 300 14 101150 85
2002-07-05 06:38:23 51°9.301 2°36.204 3.9 309 14 101150 85
2002-07-05 06:38:29 51°9.302 2°36.203 4.4 303 14 101150 85
2002-07-05 06:38:34 51°9.302 2°36.201 4.3 310 14 101150 85
2002-07-05 06:38:38 51°9.303 2°36.2 3.3 310 14 101150 85
2002-07-05 06:38:43 51°9.303 2°36.199 1.6 335 14 101150 85
2002-07-05 06:38:48 51°9.304 2°36.198 2 332 14 101150 85
2002-07-05 06:38:53 51°9.305 2°36.197 4.5 306 14 101150 85
2002-07-05 06:38:59 51°9.306 2°36.196 3.4 309 14 101150 85
2002-07-05 06:39:03 51°9.306 2°36.195 2.9 317 14 101150 85
2002-07-05 06:39:08 51°9.307 2°36.194 2.6 336 14 101150 85
2002-07-05 06:39:13 51°9.308 2°36.194 2.6 327 14 101150 85
2002-07-05 06:39:18 51°9.309 2°36.193 2.5 315 14 101150 85
2002-07-05 06:39:23 51°9.31 2°36.192 1.8 311 14 101150 85
2002-07-05 06:39:28 51°9.31 2°36.192 2.7 318 14 101150 85
2002-07-05 06:39:33 51°9.311 2°36.191 3.5 325 14 101150 85
2002-07-05 06:39:39 51°9.312 2°36.191 3 317 13.9 101160 85
2002-07-05 06:39:43 51°9.313 2°36.19 3.1 309 13.9 101160 85
2002-07-05 06:39:48 51°9.314 2°36.19 2.5 302 13.9 101150 85
2002-07-05 06:39:54 51°9.315 2°36.189 1.6 346 13.9 101150 85
2002-07-05 06:39:59 51°9.316 2°36.189 1.6 331 13.9 101150 85
2002-07-05 06:40:03 51°9.317 2°36.189 1.2 351 13.9 101150 85
2002-07-05 06:40:09 51°9.318 2°36.188 0.9 329 13.9 101150 85
2002-07-05 06:40:13 51°9.318 2°36.188 1.3 331 13.9 101150 85
2002-07-05 06:40:19 51°9.32 2°36.188 2.5 311 13.9 101140 85
2002-07-05 06:40:23 51°9.32 2°36.188 2.9 318 13.9 101140 85
2002-07-05 06:40:28 51°9.321 2°36.188 3.4 319 13.9 101150 85
2002-07-05 06:40:33 51°9.322 2°36.188 2.8 315 13.9 101150 85
2002-07-05 06:40:39 51°9.323 2°36.189 3.9 303 13.9 101150 85
2002-07-05 06:40:43 51°9.324 2°36.189 2.5 310 13.9 101150 85
2002-07-05 06:40:48 51°9.325 2°36.19 2.8 322 13.9 101150 85
2002-07-05 06:40:53 51°9.326 2°36.192 2.6 324 13.9 101150 85
2002-07-05 06:40:59 51°9.327 2°36.193 4.1 307 13.9 101150 85
2002-07-05 06:41:03 51°9.327 2°36.194 3.4 307 13.9 101150 85
2002-07-05 06:41:08 51°9.328 2°36.196 2.2 308 13.9 101140 85
2002-07-05 06:41:13 51°9.33 2°36.197 0.9 308 13.9 101140 85
2002-07-05 06:41:18 51°9.33 2°36.198 1.6 325 14 101140 85
2002-07-05 06:41:23 51°9.331 2°36.2 0.7 345 14 101140 85
2002-07-05 06:41:28 51°9.332 2°36.201 1.4 325 14 101150 85
2002-07-05 06:41:33 51°9.333 2°36.202 0.7 323 14 101150 85
2002-07-05 06:41:39 51°9.334 2°36.204 1 317 14 101140 85
2002-07-05 06:41:43 51°9.335 2°36.205 0.7 336 14 101140 85
2002-07-05 06:41:49 51°9.336 2°36.207 0.4 319 14 101140 86
2002-07-05 06:41:53 51°9.337 2°36.207 1.2 317 14 101140 86
2002-07-05 06:41:59 51°9.338 2°36.208 2.2 315 14 101140 86
2002-07-05 06:42:03 51°9.339 2°36.208 3.3 303 14 101140 86
2002-07-05 06:42:08 51°9.339 2°36.208 5.4 302 14 101140 86
2002-07-05 06:42:14 51°9.34 2°36.208 5.2 295 14 101140 86
2002-07-05 06:42:19 51°9.34 2°36.208 5.3 297 14 101150 85
2002-07-05 06:42:23 51°9.34 2°36.208 6.4 298 14 101150 85
2002-07-05 06:42:28 51°9.34 2°36.208 6.8 293 14 101140 85
2002-07-05 06:42:34 51°9.34 2°36.207 6.4 292 14 101140 85
2002-07-05 06:42:39 51°9.34 2°36.207 6.2 290 14 101140 86
2002-07-05 06:42:43 51°9.34 2°36.207 5.5 285 14 101140 86
2002-07-05 06:42:48 51°9.339 2°36.207 6.2 277 14 101140 86
2002-07-05 06:42:54 51°9.339 2°36.207 6.9 280 14 101140 86
2002-07-05 06:42:59 51°9.338 2°36.207 6.5 278 14 101140 86
2002-07-05 06:43:03 51°9.337 2°36.207 6 275 14 101140 86
2002-07-05 06:43:08 51°9.337 2°36.207 6.5 271 14.1 101130 86
2002-07-05 06:43:14 51°9.336 2°36.208 5.6 264 14.1 101130 86
2002-07-05 06:43:19 51°9.335 2°36.208 6 268 14.1 101140 86
2002-07-05 06:43:23 51°9.334 2°36.209 5.8 267 14.1 101140 86
2002-07-05 06:43:29 51°9.332 2°36.21 6.2 268 14 101130 85
2002-07-05 06:43:33 51°9.331 2°36.21 6.3 269 14 101130 85
2002-07-05 06:43:38 51°9.33 2°36.211 6.8 264 14 101130 85
2002-07-05 06:43:44 51°9.328 2°36.212 6.4 264 14 101130 85
2002-07-05 06:43:50 51°9.325 2°36.213 6.7 260 14 101130 85
2002-07-05 06:43:54 51°9.324 2°36.213 6.2 263 14 101130 85
2002-07-05 06:44:00 51°9.322 2°36.215 7.2 266 14 101130 85
2002-07-05 06:44:03 51°9.321 2°36.215 6.9 268 14 101130 85
2002-07-05 06:44:09 51°9.318 2°36.216 6.3 269 14 101130 86
2002-07-05 06:44:13 51°9.317 2°36.217 5.7 259 14 101130 86
2002-07-05 06:44:19 51°9.314 2°36.219 6.8 261 14 101120 85
2002-07-05 06:44:23 51°9.313 2°36.22 6 253 14 101120 85
2002-07-05 06:44:29 51°9.31 2°36.222 7.1 255 14 101130 85
2002-07-05 06:44:33 51°9.309 2°36.223 7.9 258 14 101130 85
2002-07-05 06:44:39 51°9.306 2°36.225 8.3 255 14 101120 86
2002-07-05 06:44:43 51°9.305 2°36.227 7.5 253 14 101120 86
2002-07-05 06:44:48 51°9.303 2°36.229 7 253 14 101130 86
2002-07-05 06:44:53 51°9.301 2°36.231 6.5 246 14 101130 86
2002-07-05 06:44:59 51°9.299 2°36.234 6.7 246 14 101120 86
2002-07-05 06:45:03 51°9.297 2°36.237 6.9 240 14 101120 86
2002-07-05 06:45:09 51°9.295 2°36.241 6.6 239 14 101120 85
2002-07-05 06:45:14 51°9.293 2°36.245 6.8 236 14 101120 85
2002-07-05 06:45:18 51°9.292 2°36.247 6.1 232 14 101120 85
2002-07-05 06:45:23 51°9.291 2°36.251 7 232 14 101120 85
2002-07-05 06:45:29 51°9.29 2°36.255 6.5 230 14 101120 85
2002-07-05 06:45:34 51°9.289 2°36.258 6.2 225 14 101120 85
2002-07-05 06:45:39 51°9.289 2°36.262 5.5 229 14 101130 85
2002-07-05 06:45:43 51°9.289 2°36.264 6.6 234 14 101130 85
2002-07-05 06:45:49 51°9.29 2°36.267 6.5 236 14 101130 86
2002-07-05 06:45:53 51°9.291 2°36.269 6.3 235 14 101130 86
2002-07-05 06:45:59 51°9.293 2°36.272 6 235 14 101130 86